Time;durP1;ratioP1;P1;durP2;ratioP2;P2;SDS_P1;SDS_P2;PMS_P1;PMS_P2;Temp;Humidity;BMP_temperature;BMP_pressure;BME280_temperature;BME280_humidity;BME280_pressure;Samples;Min_cycle;Max_cycle;Signal;HPM_P1;HPM_P2
2022/12/07 00:00:15;;;;;;;3.90;2.58;;;;;;;17.86;62.57;98314.88;2026651;28;19921;-54
2022/12/07 00:01:21;;;;;;;5.13;2.78;;;;;;;17.89;62.39;98312.81;2027569;28;20527;-55
2022/12/07 00:02:22;;;;;;;3.78;2.05;;;;;;;17.89;62.32;98318.19;2029018;28;20064;-55
2022/12/07 00:03:24;;;;;;;5.63;2.83;;;;;;;17.91;62.30;98316.09;2030534;28;20049;-55
2022/12/07 00:04:25;;;;;;;7.00;2.70;;;;;;;17.91;62.09;98303.50;2031073;28;20484;-53
2022/12/07 00:05:27;;;;;;;;;;;;;;;17.74;62.71;98302.22;2034000;28;20247;-52
2022/12/07 00:06:28;;;;;;;5.07;2.30;;;;;;;17.79;62.50;98307.84;2031100;28;20370;-53
2022/12/07 00:07:30;;;;;;;;;;;;;;;17.72;62.69;98296.25;2031068;28;20123;-47
2022/12/07 00:08:31;;;;;;;4.97;2.80;;;;;;;17.80;62.56;98307.66;2031262;28;19947;-54
2022/12/07 00:09:33;;;;;;;4.72;2.58;;;;;;;17.84;62.18;98303.50;2032241;28;20107;-55
2022/12/07 00:10:34;;;;;;;5.07;2.40;;;;;;;17.88;62.36;98298.53;2033285;28;20140;-53
2022/12/07 00:11:37;;;;;;;5.10;3.13;;;;;;;17.90;62.12;98293.81;2030636;28;20448;-53
2022/12/07 00:12:38;;;;;;;4.38;2.28;;;;;;;17.92;62.09;98293.63;2031804;28;20049;-52
2022/12/07 00:13:40;;;;;;;;;;;;;;;17.78;62.59;98298.13;2033614;28;20145;-50
2022/12/07 00:14:42;;;;;;;3.95;2.95;;;;;;;17.83;62.35;98290.31;2032663;28;20192;-55
2022/12/07 00:15:43;;;;;;;5.43;3.13;;;;;;;17.85;62.40;98285.53;2035875;28;21118;-50
2022/12/07 00:16:50;;;;;;;5.38;2.38;;;;;;;17.89;62.17;98289.47;2034520;28;20049;-53
2022/12/07 00:17:51;;;;;;;5.45;2.92;;;;;;;17.88;62.20;98293.19;2032889;28;20069;-55
2022/12/07 00:18:53;;;;;;;;;;;;;;;17.76;62.66;98289.44;2037911;28;20053;-55
2022/12/07 00:19:53;;;;;;;4.10;2.42;;;;;;;17.79;62.57;98284.53;2033769;28;19932;-55
2022/12/07 00:21:00;;;;;;;;;;;;;;;17.71;62.66;98283.88;2036978;28;20367;-53
2022/12/07 00:22:00;;;;;;;5.50;2.33;;;;;;;17.76;62.71;98278.72;2037937;28;20694;-53
2022/12/07 00:23:03;;;;;;;;;;;;;;;17.65;62.70;98272.94;2038065;28;20377;-53
2022/12/07 00:24:05;;;;;;;5.90;2.88;;;;;;;17.77;62.57;98266.94;2036071;28;20470;-49
2022/12/07 00:25:08;;;;;;;3.67;2.42;;;;;;;17.80;62.50;98272.78;2038806;28;20107;-53
2022/12/07 00:26:11;;;;;;;5.35;2.72;;;;;;;17.85;62.33;98272.94;2041057;28;20057;-52
2022/12/07 00:27:13;;;;;;;4.30;2.85;;;;;;;17.86;62.18;98268.44;2040616;28;20045;-53
2022/12/07 00:28:14;;;;;;;4.40;2.90;;;;;;;17.90;62.26;98269.66;2040538;28;20075;-53
2022/12/07 00:29:17;;;;;;;;;;;;;;;17.78;62.48;98274.84;2044148;28;20363;-52
2022/12/07 00:30:18;;;;;;;7.35;3.40;;;;;;;17.78;62.36;98272.16;2040709;28;20567;-53
2022/12/07 00:31:21;;;;;;;;;;;;;;;17.71;62.64;98270.47;2040405;28;22094;-54
2022/12/07 00:32:23;;;;;;;7.40;3.33;;;;;;;17.77;62.44;98275.00;2039820;28;20771;-53
2022/12/07 00:33:25;;;;;;;5.93;2.88;;;;;;;17.79;62.59;98273.78;2041298;28;20046;-56
2022/12/07 00:34:27;;;;;;;4.63;2.95;;;;;;;17.85;62.15;98277.50;2041411;28;20389;-52
2022/12/07 00:35:28;;;;;;;3.63;2.10;;;;;;;17.86;62.18;98273.81;2040457;28;20246;-54
2022/12/07 00:36:30;;;;;;;;;;;;;;;17.74;62.36;98264.69;2038112;28;20145;-55
2022/12/07 00:37:30;;;;;;;4.00;2.63;;;;;;;17.78;62.55;98271.28;2039919;28;20334;-50
2022/12/07 00:38:33;;;;;;;;;;;;;;;17.69;62.63;98267.16;2041146;28;20065;-52
2022/12/07 00:39:34;;;;;;;5.43;2.17;;;;;;;17.76;62.53;98266.13;2041743;28;20984;-55
2022/12/07 00:40:35;;;;;;;;;;;;;;;17.67;62.57;98261.19;2042306;28;20519;-55
2022/12/07 00:41:36;;;;;;;6.47;2.55;;;;;;;17.72;62.59;98264.06;2040432;28;19990;-54
2022/12/07 00:42:38;;;;;;;;;;;;;;;17.67;62.66;98258.50;2043208;28;20474;-53
2022/12/07 00:43:40;;;;;;;;;;;;;;;17.60;62.99;98264.66;2042300;28;19925;-53
2022/12/07 00:44:40;;;;;;;4.40;2.38;;;;;;;17.69;62.71;98265.31;2041508;28;19929;-54
2022/12/07 00:45:42;;;;;;;;;;;;;;;17.64;62.81;98260.56;2044307;28;20049;-53
2022/12/07 00:46:43;;;;;;;;;;;;;;;17.59;62.91;98262.22;2042696;28;19983;-53
2022/12/07 00:47:46;;;;;;;3.40;2.08;;;;;;;17.68;62.68;98257.47;2043392;28;19999;-53
2022/12/07 00:48:48;;;;;;;5.72;2.80;;;;;;;17.75;62.33;98269.03;2045371;28;20672;-53
2022/12/07 00:49:50;;;;;;;3.58;2.88;;;;;;;17.79;62.34;98264.91;2041476;28;20054;-53
2022/12/07 00:50:51;;;;;;;3.47;2.13;;;;;;;17.81;62.19;98266.38;2042799;28;20114;-50
2022/12/07 00:51:53;;;;;;;5.47;2.58;;;;;;;17.82;62.22;98267.19;2040420;28;20931;-53
2022/12/07 00:52:54;;;;;;;4.05;2.30;;;;;;;17.82;62.24;98270.69;2043835;28;20103;-51
2022/12/07 00:53:56;;;;;;;;;;;;;;;17.70;62.54;98263.47;2043102;28;20053;-50
2022/12/07 00:54:57;;;;;;;3.72;1.90;;;;;;;17.74;62.55;98262.81;2043630;28;20482;-53
2022/12/07 00:55:58;;;;;;;;;;;;;;;17.66;62.81;98265.69;2042712;28;20824;-53
2022/12/07 00:57:00;;;;;;;5.53;2.42;;;;;;;17.72;62.49;98261.38;2044002;28;19921;-52
2022/12/07 00:58:02;;;;;;;5.40;3.00;;;;;;;17.76;62.51;98262.63;2042413;28;20053;-54
2022/12/07 00:59:04;;;;;;;2.85;2.33;;;;;;;17.80;62.27;98263.88;2047817;28;21199;-52
2022/12/07 01:00:08;;;;;;;3.22;2.60;;;;;;;17.81;62.27;98270.91;2042072;28;20436;-53
2022/12/07 01:01:10;;;;;;;4.88;2.83;;;;;;;17.81;62.13;98274.41;2046903;28;20041;-51
2022/12/07 01:02:12;;;;;;;4.78;2.30;;;;;;;17.81;62.13;98266.38;2043980;28;20488;-52
2022/12/07 01:03:15;;;;;;;5.63;2.70;;;;;;;17.82;62.01;98275.22;2041700;28;20596;-52
2022/12/07 01:04:17;;;;;;;4.00;2.65;;;;;;;17.81;62.14;98277.09;2046571;28;20049;-53
2022/12/07 01:05:18;;;;;;;3.90;2.95;;;;;;;17.81;62.19;98277.09;2045858;28;20057;-53
2022/12/07 01:06:22;;;;;;;3.13;2.25;;;;;;;17.82;62.32;98278.75;2048153;28;20115;-53
2022/12/07 01:07:23;;;;;;;4.68;2.28;;;;;;;17.80;62.14;98274.59;2046081;28;20514;-50
2022/12/07 01:08:26;;;;;;;;;;;;;;;17.69;62.44;98272.50;2046750;28;20502;-53
2022/12/07 01:09:26;;;;;;;4.80;2.70;;;;;;;17.73;62.46;98273.78;2048233;28;20087;-52
2022/12/07 01:10:30;;;;;;;;;;;;;;;17.62;62.65;98272.53;2044081;28;21493;-51
2022/12/07 01:11:31;;;;;;;5.35;3.10;;;;;;;17.67;62.52;98274.59;2046944;28;19928;-50
2022/12/07 01:12:32;;;;;;;;;;;;;;;17.60;62.78;98272.72;2048165;28;20084;-51
2022/12/07 01:13:34;;;;;;;5.63;2.30;;;;;;;17.68;62.59;98263.66;2045399;28;20026;-53
2022/12/07 01:14:36;;;;;;;4.05;2.53;;;;;;;17.71;62.50;98260.56;2045651;28;20045;-54
2022/12/07 01:15:39;;;;;;;4.30;2.53;;;;;;;17.76;62.34;98268.00;2047652;28;20049;-55
2022/12/07 01:16:41;;;;;;;5.53;2.72;;;;;;;17.77;62.24;98264.25;2047166;28;20834;-56
2022/12/07 01:17:42;;;;;;;5.88;2.80;;;;;;;17.79;62.15;98267.59;2046863;28;20053;-52
2022/12/07 01:18:48;;;;;;;3.90;2.38;;;;;;;17.79;62.19;98267.59;2048054;28;20909;-54
2022/12/07 01:19:48;;;;;;;4.57;2.25;;;;;;;17.78;62.23;98264.09;2045867;28;20103;-51
2022/12/07 01:20:57;;;;;;;;;;;;;;;17.67;62.63;98269.25;2046087;28;20061;-53
2022/12/07 01:22:00;;;;;;;3.53;2.90;;;;;;;17.71;62.39;98275.81;2047823;28;19925;-52
2022/12/07 01:23:01;;;;;;;4.20;2.38;;;;;;;17.72;62.31;98270.28;2047257;28;21395;-55
2022/12/07 01:24:03;;;;;;;;;;;;;;;17.61;62.79;98284.28;2047107;28;20060;-54
2022/12/07 01:25:05;;;;;;;3.65;2.42;;;;;;;17.66;62.69;98279.13;2047154;28;19925;-52
2022/12/07 01:26:10;;;;;;;4.60;2.50;;;;;;;17.71;62.32;98284.69;2045904;28;20059;-54
2022/12/07 01:27:11;;;;;;;4.28;3.20;;;;;;;17.73;62.21;98289.88;2042764;28;21001;-55
2022/12/07 01:28:13;;;;;;;10.57;3.20;;;;;;;17.76;62.18;98278.72;2045552;28;20099;-55
2022/12/07 01:29:14;;;;;;;4.47;2.22;;;;;;;17.78;62.14;98292.75;2043934;28;20041;-53
2022/12/07 01:30:16;;;;;;;;;;;;;;;17.64;62.42;98291.94;2046201;28;20072;-50
2022/12/07 01:31:20;;;;;;;5.35;2.95;;;;;;;17.70;62.34;98287.59;2048429;28;20392;-52
2022/12/07 01:32:21;;;;;;;4.78;2.63;;;;;;;17.72;62.38;98283.69;2047398;28;20052;-49
2022/12/07 01:33:22;;;;;;;5.57;2.78;;;;;;;17.73;62.36;98279.13;2047286;28;20502;-50
2022/12/07 01:34:26;;;;;;;;;;;;;;;17.62;62.53;98283.25;2047429;28;20053;-50
2022/12/07 01:35:27;;;;;;;5.82;2.85;;;;;;;17.67;62.53;98279.97;2048777;28;20403;-50
2022/12/07 01:36:30;;;;;;;4.78;2.80;;;;;;;17.72;62.39;98282.81;2045588;28;20521;-51
2022/12/07 01:37:35;;;;;;;4.53;2.00;;;;;;;17.74;62.33;98275.41;2050002;28;20716;-48
2022/12/07 01:38:37;;;;;;;2.78;2.15;;;;;;;17.75;62.19;98275.22;2047657;28;20056;-54
2022/12/07 01:39:38;;;;;;;3.88;2.30;;;;;;;17.75;62.37;98280.59;2046036;28;20099;-54
2022/12/07 01:40:40;;;;;;;;;;;;;;;17.62;62.50;98278.72;2050754;28;20549;-51
2022/12/07 01:41:43;;;;;;;;;;;;;;;17.53;62.88;98279.94;2048300;28;20542;-55
2022/12/07 01:42:45;;;;;;;5.55;3.08;;;;;;;17.62;62.84;98281.38;2046137;28;20026;-56
2022/12/07 01:44:08;;;;;;;5.28;2.28;;;;;;;17.62;62.50;98278.72;2048507;28;20053;-55
2022/12/07 01:45:40;;;;;;;4.95;2.50;;;;;;;17.64;62.44;98284.69;2044496;28;20732;-51
2022/12/07 01:46:41;;;;;;;3.75;2.30;;;;;;;17.64;62.42;98279.34;2049334;28;20057;-56
2022/12/07 01:47:46;;;;;;;3.85;2.63;;;;;;;17.69;62.27;98285.94;2045696;28;20111;-52
2022/12/07 01:48:48;;;;;;;3.53;2.20;;;;;;;17.71;62.33;98282.00;2048063;28;20065;-55
2022/12/07 01:49:50;;;;;;;6.50;3.38;;;;;;;17.73;62.26;98279.13;2048040;28;20065;-54
2022/12/07 01:50:56;;;;;;;4.22;2.05;;;;;;;17.73;62.33;98276.44;2046214;28;20151;-55
2022/12/07 01:52:10;;;;;;;2.90;2.13;;;;;;;17.72;62.23;98274.78;2050007;28;20056;-50
2022/12/07 01:53:13;;;;;;;4.07;2.30;;;;;;;17.71;62.37;98270.47;2048836;28;20454;-52
2022/12/07 01:54:16;;;;;;;5.15;2.40;;;;;;;17.73;62.11;98269.22;2047413;28;20061;-54
2022/12/07 01:55:18;;;;;;;3.45;2.25;;;;;;;17.74;62.17;98267.38;2046305;28;20083;-58
2022/12/07 01:56:24;;;;;;;3.70;2.20;;;;;;;17.73;62.13;98266.53;2050153;28;20437;-52
2022/12/07 01:57:27;;;;;;;3.03;2.10;;;;;;;17.73;62.25;98268.41;2050561;28;20046;-55
2022/12/07 01:58:28;;;;;;;4.18;2.35;;;;;;;17.72;62.13;98267.59;2047669;28;20522;-52
2022/12/07 01:59:30;;;;;;;3.25;2.10;;;;;;;17.73;62.12;98265.72;2048100;28;20923;-55
2022/12/07 02:00:31;;;;;;;3.13;2.05;;;;;;;17.73;62.17;98263.03;2048378;28;20049;-55
2022/12/07 02:01:33;;;;;;;;;;;;;;;17.60;62.67;98264.66;2046718;28;20096;-57
2022/12/07 02:02:35;;;;;;;;;;;;;;;17.49;62.64;98265.28;2050818;28;19991;-56
2022/12/07 02:03:40;;;;;;;2.90;2.00;;;;;;;17.59;62.50;98268.41;2047987;28;19925;-54
2022/12/07 02:04:42;;;;;;;2.90;2.35;;;;;;;17.63;62.45;98258.94;2050195;28;20046;-50
2022/12/07 02:05:47;;;;;;;6.90;3.13;;;;;;;17.70;62.35;98260.78;2050676;28;20049;-52
2022/12/07 02:06:49;;;;;;;3.35;2.22;;;;;;;17.71;62.28;98259.72;2050030;28;20045;-52
2022/12/07 02:07:54;;;;;;;3.78;2.00;;;;;;;17.70;62.20;98258.91;2050595;28;20100;-52
2022/12/07 02:08:56;;;;;;;3.40;2.15;;;;;;;17.71;62.10;98257.06;2049738;28;20452;-49
2022/12/07 02:09:57;;;;;;;4.32;2.55;;;;;;;17.70;62.23;98252.72;2050445;28;20342;-50
2022/12/07 02:10:59;;;;;;;3.10;2.05;;;;;;;17.71;62.02;98254.38;2046873;28;20593;-50
2022/12/07 02:12:01;;;;;;;3.80;2.75;;;;;;;17.71;62.14;98257.06;2049268;28;20049;-50
2022/12/07 02:13:06;;;;;;;2.90;1.67;;;;;;;17.71;62.08;98259.72;2046173;28;20448;-52
2022/12/07 02:14:07;;;;;;;3.78;3.05;;;;;;;17.71;62.14;98262.41;2051787;28;20114;-49
2022/12/07 02:15:09;;;;;;;;;;;;;;;17.57;62.52;98259.72;2051219;28;20448;-51
2022/12/07 02:16:22;;;;;;;3.20;2.33;;;;;;;17.61;62.46;98258.28;2055441;28;20271;-52
2022/12/07 02:17:32;;;;;;;2.28;1.85;;;;;;;17.64;62.51;98257.88;2049720;28;20136;-50
2022/12/07 02:18:44;;;;;;;2.28;1.80;;;;;;;17.64;62.23;98252.53;2041540;28;20513;-50
2022/12/07 02:20:27;;;;;;;4.03;2.25;;;;;;;17.61;62.40;98258.28;2052406;28;20045;-53
2022/12/07 02:21:38;;;;;;;2.65;2.05;;;;;;;17.62;62.40;98256.44;2050948;28;20764;-48
2022/12/07 02:23:28;;;;;;;4.70;2.90;;;;;;;17.61;62.42;98257.47;2053489;28;20420;-49
2022/12/07 02:24:46;;;;;;;3.35;1.75;;;;;;;17.58;62.54;98252.53;2048180;28;20307;-50
2022/12/07 02:26:17;;;;;;;2.50;2.17;;;;;;;17.59;62.61;98254.16;2052429;28;20053;-52
2022/12/07 02:27:39;;;;;;;3.35;2.38;;;;;;;17.58;62.45;98250.66;2052909;28;21153;-53
2022/12/07 02:29:02;;;;;;;2.50;1.90;;;;;;;17.60;62.40;98248.59;2055275;28;20053;-51
2022/12/07 02:30:11;;;;;;;3.72;2.10;;;;;;;17.61;62.46;98244.06;2051997;28;20205;-53
2022/12/07 02:31:18;;;;;;;2.55;1.88;;;;;;;17.63;62.25;98244.66;2058029;28;20098;-51
2022/12/07 02:32:25;;;;;;;2.67;2.17;;;;;;;17.64;62.30;98238.28;2055090;28;20072;-52
2022/12/07 02:33:31;;;;;;;3.05;2.17;;;;;;;17.66;62.24;98244.25;2050796;28;20112;-54
2022/12/07 02:34:40;;;;;;;4.10;2.83;;;;;;;17.64;62.11;98235.59;2050390;28;20898;-53
2022/12/07 02:35:48;;;;;;;3.50;2.30;;;;;;;17.65;62.14;98234.56;2053299;28;20140;-56
2022/12/07 02:36:56;;;;;;;3.10;2.25;;;;;;;17.65;62.02;98232.69;2055100;28;20124;-48
2022/12/07 02:38:05;;;;;;;4.50;2.00;;;;;;;17.64;62.23;98239.09;2054419;28;20510;-51
2022/12/07 02:39:15;;;;;;;4.35;2.05;;;;;;;17.64;62.08;98233.75;2054156;28;20081;-51
2022/12/07 02:40:21;;;;;;;2.83;2.53;;;;;;;17.63;62.08;98229.44;2052166;28;20053;-53
2022/12/07 02:41:29;;;;;;;3.95;2.00;;;;;;;17.64;62.09;98239.09;2054007;28;20049;-52
2022/12/07 02:42:36;;;;;;;3.03;2.35;;;;;;;17.64;62.14;98232.94;2052365;28;20053;-49
2022/12/07 02:43:42;;;;;;;4.18;2.05;;;;;;;17.65;62.31;98237.25;2054213;28;20487;-50
2022/12/07 02:44:46;;;;;;;3.65;2.55;;;;;;;17.64;62.32;98230.25;2053957;28;20475;-50
2022/12/07 02:45:52;;;;;;;3.92;2.85;;;;;;;17.65;62.10;98230.03;2054379;28;20407;-51
2022/12/07 02:46:57;;;;;;;6.78;2.45;;;;;;;17.64;62.06;98228.38;2055157;28;20064;-51
2022/12/07 02:48:01;;;;;;;3.13;2.08;;;;;;;17.64;62.04;98224.88;2055239;28;20129;-54
2022/12/07 02:49:03;;;;;;;2.85;2.17;;;;;;;17.65;62.02;98231.88;2055887;28;20049;-54
2022/12/07 02:50:07;;;;;;;3.35;2.10;;;;;;;17.65;62.33;98224.66;2054195;28;20082;-50
2022/12/07 02:51:08;;;;;;;7.65;1.90;;;;;;;17.63;62.13;98223.22;2057766;28;20682;-51
2022/12/07 02:52:09;;;;;;;;;;;;;;;17.51;62.36;98225.69;2055489;28;20061;-52
2022/12/07 02:53:29;;;;;;;3.60;2.45;;;;;;;17.51;62.46;98214.97;2057662;28;19925;-51
2022/12/07 02:54:31;;;;;;;2.45;1.63;;;;;;;17.56;62.37;98225.09;2055000;28;20092;-54
2022/12/07 02:55:38;;;;;;;2.70;1.98;;;;;;;17.60;62.20;98229.00;2057521;28;20042;-50
2022/12/07 02:56:49;;;;;;;3.10;1.60;;;;;;;17.59;62.30;98224.66;2057207;28;20049;-52
2022/12/07 02:58:11;;;;;;;3.20;1.83;;;;;;;17.59;61.97;98224.66;2054953;28;20061;-49
2022/12/07 02:59:24;;;;;;;4.95;2.42;;;;;;;17.57;62.40;98219.50;2053303;28;20364;-53
2022/12/07 03:00:28;;;;;;;2.90;1.90;;;;;;;17.58;62.15;98217.66;2055706;28;20525;-51
2022/12/07 03:01:39;;;;;;;4.03;2.38;;;;;;;17.59;62.46;98224.66;2056359;28;20054;-52
2022/12/07 03:02:52;;;;;;;3.17;1.92;;;;;;;17.59;62.17;98216.63;2057559;28;20045;-50
2022/12/07 03:04:09;;;;;;;4.03;1.73;;;;;;;17.59;62.27;98219.31;2037042;28;20057;-54
2022/12/07 03:05:26;;;;;;;2.40;1.92;;;;;;;17.57;62.38;98222.19;2003363;28;20549;-52
2022/12/07 03:06:35;;;;;;;3.78;2.13;;;;;;;17.57;62.37;98216.00;2004689;28;20342;-54
2022/12/07 03:07:47;;;;;;;3.45;2.10;;;;;;;17.58;62.37;98226.53;2007951;28;21059;-54
2022/12/07 03:08:57;;;;;;;3.15;2.15;;;;;;;17.59;62.36;98217.44;2001873;28;20053;-56
2022/12/07 03:10:08;;;;;;;2.77;1.97;;;;;;;17.59;62.15;98217.44;2003792;28;20383;-53
2022/12/07 03:11:14;;;;;;;5.13;2.23;;;;;;;17.60;62.43;98220.94;2008005;28;21295;-57
2022/12/07 03:12:21;;;;;;;3.55;2.33;;;;;;;17.58;62.20;98225.72;2006807;28;20659;-55
2022/12/07 03:13:28;;;;;;;2.80;2.03;;;;;;;17.59;62.33;98224.66;2012779;28;20715;-54
2022/12/07 03:14:33;;;;;;;3.22;2.03;;;;;;;17.59;62.27;98224.66;2010416;28;20506;-52
2022/12/07 03:15:44;;;;;;;3.30;2.10;;;;;;;17.57;62.18;98218.69;2010571;28;20491;-57
2022/12/07 03:16:51;;;;;;;3.90;1.95;;;;;;;17.57;62.28;98224.88;2017667;28;20357;-51
2022/12/07 03:17:56;;;;;;;3.22;2.13;;;;;;;17.56;62.25;98225.91;2017664;28;20995;-50
2022/12/07 03:19:02;;;;;;;2.80;2.20;;;;;;;17.58;62.34;98220.34;2018420;28;20049;-52
2022/12/07 03:20:07;;;;;;;2.85;2.13;;;;;;;17.58;62.22;98223.03;2020237;28;20390;-51
2022/12/07 03:21:12;;;;;;;3.88;2.08;;;;;;;17.58;62.08;98220.34;2018021;28;20560;-51
2022/12/07 03:22:16;;;;;;;2.40;2.20;;;;;;;17.59;62.32;98222.00;2023393;28;20445;-51
2022/12/07 03:23:22;;;;;;;3.83;2.75;;;;;;;17.59;62.15;98214.75;2022986;28;20514;-53
2022/12/07 03:24:28;;;;;;;2.15;1.85;;;;;;;17.58;62.18;98213.13;2026688;28;20053;-54
2022/12/07 03:25:29;;;;;;;3.03;2.22;;;;;;;17.58;62.26;98218.50;2022811;28;20057;-54
2022/12/07 03:26:33;;;;;;;;;;;;;;;17.47;62.58;98221.78;2026472;28;20139;-52
2022/12/07 03:27:40;;;;;;;2.22;2.03;;;;;;;17.51;62.55;98216.84;2026167;28;20317;-51
2022/12/07 03:28:51;;;;;;;2.50;1.80;;;;;;;17.54;62.17;98217.22;2030155;28;20049;-54
2022/12/07 03:29:56;;;;;;;4.55;2.58;;;;;;;17.55;62.34;98212.69;2028981;28;21036;-50
2022/12/07 03:31:06;;;;;;;2.03;1.75;;;;;;;17.57;62.17;98213.31;2030173;28;20085;-50
2022/12/07 03:32:14;;;;;;;3.00;2.25;;;;;;;17.55;62.25;98213.53;2022522;28;20072;-53
2022/12/07 03:33:21;;;;;;;5.32;2.17;;;;;;;17.55;62.27;98207.31;2031554;28;20179;-54
2022/12/07 03:34:27;;;;;;;3.42;1.92;;;;;;;17.57;62.40;98211.47;2033125;28;20065;-55
2022/12/07 03:35:34;;;;;;;2.53;1.83;;;;;;;17.57;62.29;98221.38;2033800;28;20067;-54
2022/12/07 03:36:42;;;;;;;2.90;2.08;;;;;;;17.56;62.02;98212.50;2034323;28;20045;-54
2022/12/07 03:37:49;;;;;;;2.15;1.77;;;;;;;17.57;62.12;98210.63;2031485;28;20992;-55
2022/12/07 03:38:58;;;;;;;2.45;1.98;;;;;;;17.56;62.11;98209.00;2033694;28;20542;-53
2022/12/07 03:40:06;;;;;;;2.20;1.77;;;;;;;17.55;62.30;98210.00;2035974;28;20083;-53
2022/12/07 03:41:10;;;;;;;3.50;2.05;;;;;;;17.55;62.14;98208.19;2034280;28;20496;-52
2022/12/07 03:42:12;;;;;;;2.88;1.65;;;;;;;17.56;62.27;98207.13;2036563;28;20053;-55
2022/12/07 03:43:14;;;;;;;3.47;1.95;;;;;;;17.57;62.17;98206.09;2036327;28;20870;-54
2022/12/07 03:44:16;;;;;;;2.42;1.90;;;;;;;17.59;62.18;98208.59;2032237;28;20140;-52
2022/12/07 03:45:19;;;;;;;2.42;1.95;;;;;;;17.57;62.10;98200.72;2035405;28;20736;-53
2022/12/07 03:46:32;;;;;;;4.03;2.65;;;;;;;17.56;61.96;98206.31;2039337;28;20144;-53
2022/12/07 03:47:41;;;;;;;6.45;2.67;;;;;;;17.57;62.10;98203.41;2036706;28;20049;-53
2022/12/07 03:48:49;;;;;;;3.22;1.88;;;;;;;17.55;62.12;98196.59;2036992;28;20096;-53
2022/12/07 03:49:54;;;;;;;4.03;2.00;;;;;;;17.54;62.17;98198.47;2034949;28;20046;-52
2022/12/07 03:51:06;;;;;;;1.77;1.48;;;;;;;17.52;62.27;98207.75;2035547;28;20049;-51
2022/12/07 03:52:18;;;;;;;3.13;2.13;;;;;;;17.52;62.15;98192.47;2035006;28;20049;-54
2022/12/07 03:53:24;;;;;;;6.20;3.10;;;;;;;17.51;62.35;98190.84;2038525;28;20425;-53
2022/12/07 03:54:31;;;;;;;2.65;2.13;;;;;;;17.52;62.18;98197.84;2037770;28;20056;-53
2022/12/07 03:55:36;;;;;;;3.05;1.83;;;;;;;17.53;62.20;98196.00;2039370;28;20696;-53
2022/12/07 03:56:39;;;;;;;5.07;2.00;;;;;;;17.55;62.02;98196.59;2039947;28;20045;-53
2022/12/07 03:57:43;;;;;;;4.47;2.28;;;;;;;17.56;62.15;98200.94;2039891;28;20403;-50
2022/12/07 03:58:45;;;;;;;2.55;1.90;;;;;;;17.53;62.06;98199.50;2039440;28;20436;-53
2022/12/07 03:59:47;;;;;;;2.63;1.88;;;;;;;17.55;62.23;98199.28;2041399;28;20501;-51
2022/12/07 04:00:50;;;;;;;1.85;1.58;;;;;;;17.55;62.07;98197.44;2040026;28;20145;-53
2022/12/07 04:01:54;;;;;;;3.13;1.55;;;;;;;17.55;62.14;98196.59;2036631;28;20038;-52
2022/12/07 04:02:59;;;;;;;2.75;2.10;;;;;;;17.54;62.20;98200.31;2042323;28;20096;-53
2022/12/07 04:04:00;;;;;;;1.98;1.73;;;;;;;17.54;62.21;98201.16;2041233;28;20559;-54
2022/12/07 04:05:02;;;;;;;;;;;;;;;17.43;62.25;98196.41;2041423;28;20505;-53
2022/12/07 04:06:03;;;;;;;2.63;2.05;;;;;;;17.47;62.69;98191.44;2043264;28;19929;-52
2022/12/07 04:07:05;;;;;;;5.32;2.47;;;;;;;17.49;62.10;98195.56;2042457;28;20401;-53
2022/12/07 04:08:06;;;;;;;2.85;2.15;;;;;;;17.51;62.20;98192.69;2043005;28;20085;-52
2022/12/07 04:09:08;;;;;;;;;;;;;;;17.38;62.61;98201.56;2043790;28;20045;-54
2022/12/07 04:10:10;;;;;;;4.45;2.42;;;;;;;17.42;62.51;98189.41;2044415;28;20936;-51
2022/12/07 04:11:12;;;;;;;3.03;2.53;;;;;;;17.48;62.53;98191.25;2044838;28;20469;-52
2022/12/07 04:12:13;;;;;;;3.83;1.92;;;;;;;17.50;62.18;98188.38;2043133;28;20625;-52
2022/12/07 04:13:14;;;;;;;;;;;;;;;17.38;62.39;98182.78;2043439;28;20099;-50
2022/12/07 04:14:19;;;;;;;3.13;2.33;;;;;;;17.41;62.48;98196.63;2044524;28;20034;-53
2022/12/07 04:15:21;;;;;;;2.28;1.85;;;;;;;17.47;62.45;98188.75;2045359;28;20427;-53
2022/12/07 04:16:22;;;;;;;3.58;1.92;;;;;;;17.49;62.30;98194.75;2045706;28;20143;-53
2022/12/07 04:17:25;;;;;;;;;;;;;;;17.34;62.65;98195.78;2041225;28;20906;-57
2022/12/07 04:18:25;;;;;;;3.30;1.50;;;;;;;17.41;62.57;98193.94;2041854;28;20473;-54
2022/12/07 04:19:28;;;;;;;;;;;;;;;17.32;62.75;98192.47;2046009;28;21192;-52
2022/12/07 04:20:29;;;;;;;2.83;1.70;;;;;;;17.39;62.53;98187.97;2045939;28;19976;-52
2022/12/07 04:21:31;;;;;;;;;;;;;;;17.30;62.73;98185.69;2048112;28;20460;-53
2022/12/07 04:22:32;;;;;;;2.00;1.55;;;;;;;17.38;62.67;98191.69;2046142;28;19921;-56
2022/12/07 04:23:33;;;;;;;;;;;;;;;17.30;62.71;98191.03;2045516;28;20045;-56
2022/12/07 04:24:36;;;;;;;2.78;1.85;;;;;;;17.34;62.63;98190.44;2045194;28;19929;-51
2022/12/07 04:25:37;;;;;;;2.47;2.25;;;;;;;17.41;62.46;98193.94;2045558;28;20060;-50
2022/12/07 04:26:38;;;;;;;;;;;;;;;17.32;62.81;98188.97;2047925;28;20369;-56
2022/12/07 04:27:39;;;;;;;;;;;;;;;17.25;62.73;98188.19;2045433;28;19928;-51
2022/12/07 04:28:41;;;;;;;3.10;1.77;;;;;;;17.32;62.69;98191.66;2047027;28;20040;-53
2022/12/07 04:29:42;;;;;;;2.15;1.83;;;;;;;17.38;62.38;98190.84;2044169;28;20318;-53
2022/12/07 04:30:44;;;;;;;;;;;;;;;17.29;62.84;98187.53;2044369;28;20570;-54
2022/12/07 04:31:45;;;;;;;3.25;1.60;;;;;;;17.36;62.71;98192.91;2046589;28;19921;-53
2022/12/07 04:32:48;;;;;;;3.53;1.85;;;;;;;17.41;62.47;98193.94;2045206;28;20060;-54
2022/12/07 04:33:49;;;;;;;3.25;1.67;;;;;;;17.43;62.32;98199.91;2048123;28;20045;-51
2022/12/07 04:34:51;;;;;;;;;;;;;;;17.31;62.49;98193.53;2047210;28;20137;-52
2022/12/07 04:35:55;;;;;;;2.80;1.80;;;;;;;17.36;62.64;98192.91;2044265;28;19936;-52
2022/12/07 04:36:57;;;;;;;3.00;1.50;;;;;;;17.40;62.31;98189.59;2047377;28;20053;-55
2022/12/07 04:38:01;;;;;;;2.00;1.80;;;;;;;17.43;62.41;98188.38;2046533;28;20802;-53
2022/12/07 04:39:04;;;;;;;2.88;1.58;;;;;;;17.44;62.34;98182.00;2045324;28;20168;-55
2022/12/07 04:40:07;;;;;;;2.10;1.52;;;;;;;17.46;62.22;98187.13;2048018;28;20053;-54
2022/12/07 04:41:10;;;;;;;3.85;2.53;;;;;;;17.46;62.18;98184.44;2048807;28;20483;-49
2022/12/07 04:42:12;;;;;;;2.30;1.70;;;;;;;17.45;62.13;98186.31;2043468;28;20061;-53
2022/12/07 04:43:14;;;;;;;3.17;1.58;;;;;;;17.46;62.16;98182.59;2048579;28;20095;-52
2022/12/07 04:44:16;;;;;;;3.35;2.25;;;;;;;17.46;62.11;98182.59;2048821;28;20939;-54
2022/12/07 04:45:18;;;;;;;2.88;1.70;;;;;;;17.44;62.17;98179.31;2046329;28;20058;-54
2022/12/07 04:46:19;;;;;;;3.33;2.28;;;;;;;17.47;62.21;98183.41;2047884;28;20901;-57
2022/12/07 04:47:21;;;;;;;;;;;;;;;17.33;62.52;98183.44;2042173;28;20484;-55
2022/12/07 04:48:24;;;;;;;3.67;1.85;;;;;;;17.38;62.32;98182.78;2043449;28;19933;-57
2022/12/07 04:49:26;;;;;;;2.20;1.95;;;;;;;17.42;62.33;98181.38;2049143;28;20041;-55
2022/12/07 04:50:27;;;;;;;3.47;1.77;;;;;;;17.41;62.29;98185.06;2046131;28;20053;-49
2022/12/07 04:51:29;;;;;;;;;;;;;;;17.31;62.67;98184.66;2048798;28;21916;-51
2022/12/07 04:52:30;;;;;;;3.17;1.80;;;;;;;17.39;62.32;98184.47;2044227;28;20444;-53
2022/12/07 04:53:32;;;;;;;;;;;;;;;17.34;62.52;98189.63;2046982;28;20069;-49
2022/12/07 04:54:33;;;;;;;;;;;;;;;17.34;62.52;98184.25;2047721;28;20438;-53
2022/12/07 04:55:35;;;;;;;2.03;1.70;;;;;;;17.46;62.32;98185.25;2048796;28;20023;-51
2022/12/07 04:56:35;;;;;;;5.75;2.20;;;;;;;17.59;62.19;98185.25;2048488;28;20053;-51
2022/12/07 04:57:37;;;;;;;;;;;;;;;17.62;61.95;98184.84;2049343;28;20470;-51
2022/12/07 04:58:38;;;;;;;;;;;;;;;17.65;61.99;98179.06;2048768;28;20146;-54
2022/12/07 04:59:40;;;;;;;2.17;1.58;;;;;;;17.73;61.73;98178.03;2054188;22;20263;-54
2022/12/07 05:00:41;;;;;;;2.35;1.50;;;;;;;17.84;61.81;98179.28;2030230;28;20385;-56
2022/12/07 05:01:43;;;;;;;;;;;;;;;17.84;61.55;98179.28;2039793;28;20563;-55
2022/12/07 05:02:44;;;;;;;2.60;1.92;;;;;;;17.91;61.79;98176.56;2033013;28;20696;-56
2022/12/07 05:03:47;;;;;;;;;;;;;;;17.91;61.54;98176.56;2034554;28;21133;-54
2022/12/07 05:04:48;;;;;;;2.35;1.52;;;;;;;17.95;61.67;98181.31;2028887;28;19932;-54
2022/12/07 05:05:50;;;;;;;;;;;;;;;17.94;61.80;98178.84;2033932;28;20058;-56
2022/12/07 05:06:50;;;;;;;2.90;1.65;;;;;;;17.98;61.83;98172.84;2035867;28;20869;-52
2022/12/07 05:07:52;;;;;;;;;;;;;;;17.95;61.88;98175.94;2033259;28;20054;-54
2022/12/07 05:08:53;;;;;;;2.90;1.55;;;;;;;18.03;61.58;98173.03;2033972;28;20921;-54